Time;durP1;ratioP1;P1;durP2;ratioP2;P2;SDS_P1;SDS_P2;PMS_P1;PMS_P2;Temp;Humidity;BMP_temperature;BMP_pressure;BME280_temperature;BME280_humidity;BME280_pressure;Samples;Min_cycle;Max_cycle;Signal;HPM_P1;HPM_P2
2021/07/01 00:02:03;;;;;;;37.47;20.50;;;13.60;1.00;;;;;;4992658;28;20639;-61
2021/07/01 00:04:30;;;;;;;36.07;19.67;;;13.60;1.00;;;;;;4992208;28;20241;-61
2021/07/01 00:06:57;;;;;;;33.97;19.93;;;13.60;1.00;;;;;;4992558;28;20257;-61
2021/07/01 00:09:24;;;;;;;33.03;19.50;;;13.60;1.00;;;;;;4991568;28;20218;-61
2021/07/01 00:11:52;;;;;;;36.47;20.37;;;13.60;1.00;;;;;;4992175;28;20674;-62
2021/07/01 00:14:19;;;;;;;40.80;19.10;;;13.50;1.00;;;;;;4992452;28;20250;-62
2021/07/01 00:16:48;;;;;;;41.13;21.07;;;13.60;1.00;;;;;;4992082;28;20236;-61
2021/07/01 00:19:16;;;;;;;40.23;20.90;;;13.50;1.00;;;;;;4991846;28;20266;-61
2021/07/01 00:21:43;;;;;;;42.17;21.67;;;13.50;1.00;;;;;;4992169;28;20274;-61
2021/07/01 00:24:10;;;;;;;44.83;21.57;;;13.40;1.00;;;;;;4992102;28;20268;-60
2021/07/01 00:26:37;;;;;;;43.37;22.53;;;13.40;33.60;;;;;;4993722;28;20221;-61
2021/07/01 00:29:04;;;;;;;49.43;23.60;;;13.40;39.80;;;;;;4996352;28;20626;-61
2021/07/01 00:31:31;;;;;;;43.27;21.60;;;13.50;81.80;;;;;;4996029;28;20214;-61
2021/07/01 00:33:59;;;;;;;46.47;23.10;;;13.40;30.60;;;;;;4995955;28;20303;-62
2021/07/01 00:36:26;;;;;;;41.83;22.67;;;13.50;56.90;;;;;;4995750;28;20233;-61
2021/07/01 00:38:53;;;;;;;44.93;22.93;;;13.50;1.00;;;;;;4995812;28;20737;-62
2021/07/01 00:41:19;;;;;;;46.93;24.17;;;13.50;55.80;;;;;;4996112;28;20235;-60
2021/07/01 00:43:47;;;;;;;48.63;25.50;;;13.50;90.50;;;;;;4995499;28;20208;-61
2021/07/01 00:46:14;;;;;;;51.47;25.33;;;13.50;51.80;;;;;;4995166;28;20282;-61
2021/07/01 00:48:41;;;;;;;53.50;24.87;;;13.50;42.00;;;;;;4995461;28;20679;-61
2021/07/01 00:51:09;;;;;;;50.47;25.60;;;13.50;38.00;;;;;;4995667;28;20282;-62
2021/07/01 00:53:36;;;;;;;51.57;27.23;;;13.50;1.00;;;;;;4995252;28;20792;-61
2021/07/01 00:56:05;;;;;;;47.93;26.77;;;13.60;1.00;;;;;;4995770;28;20227;-61
2021/07/01 00:58:32;;;;;;;57.80;29.07;;;13.60;1.00;;;;;;4995550;28;20238;-62
2021/07/01 01:01:02;;;;;;;53.97;27.43;;;13.60;1.00;;;;;;4995381;28;20571;-61
2021/07/01 01:03:29;;;;;;;64.43;31.37;;;13.70;1.00;;;;;;4994914;28;20214;-61
2021/07/01 01:05:56;;;;;;;69.53;32.77;;;13.50;21.40;;;;;;4995238;28;20651;-62
2021/07/01 01:08:24;;;;;;;71.93;33.90;;;13.50;99.90;;;;;;4995431;28;20222;-61
2021/07/01 01:10:51;;;;;;;63.70;32.67;;;13.50;99.90;;;;;;4995213;28;20257;-64
2021/07/01 01:13:24;;;;;;;67.87;33.60;;;13.60;99.90;;;;;;4994818;28;20203;-61
2021/07/01 01:15:52;;;;;;;67.50;32.70;;;13.60;99.90;;;;;;4995075;28;20723;-60
2021/07/01 01:18:19;;;;;;;57.63;31.67;;;13.60;99.90;;;;;;4994806;28;20207;-61
2021/07/01 01:20:46;;;;;;;58.90;30.70;;;13.70;99.90;;;;;;4994231;28;20235;-61
2021/07/01 01:23:14;;;;;;;60.77;31.17;;;13.60;99.90;;;;;;4995435;28;20276;-61
2021/07/01 01:25:43;;;;;;;65.70;32.50;;;13.60;99.90;;;;;;4994898;28;20263;-61
2021/07/01 01:28:10;;;;;;;56.40;30.07;;;13.60;99.90;;;;;;4994924;28;20638;-61
2021/07/01 01:30:38;;;;;;;62.17;31.30;;;13.60;99.90;;;;;;4994947;28;20241;-61
2021/07/01 01:33:05;;;;;;;59.27;31.27;;;13.60;99.90;;;;;;4995052;28;20216;-61
2021/07/01 01:35:32;;;;;;;54.07;30.67;;;13.60;99.90;;;;;;4994861;28;20572;-61
2021/07/01 01:37:59;;;;;;;58.47;30.57;;;13.50;91.90;;;;;;4994496;28;20698;-60
2021/07/01 01:40:27;;;;;;;57.07;29.90;;;13.50;99.90;;;;;;4994033;28;20208;-61
2021/07/01 01:42:54;;;;;;;60.67;30.47;;;13.60;99.90;;;;;;4994161;28;20258;-60
2021/07/01 01:45:21;;;;;;;53.83;29.83;;;13.50;99.90;;;;;;4993662;28;20230;-60
2021/07/01 01:47:48;;;;;;;56.80;30.03;;;13.50;99.90;;;;;;4993594;28;20256;-61
2021/07/01 01:50:17;;;;;;;51.80;27.63;;;13.60;99.90;;;;;;4994037;28;20204;-61
2021/07/01 01:52:43;;;;;;;50.27;28.50;;;13.60;99.90;;;;;;4995003;28;20211;-61
2021/07/01 01:55:12;;;;;;;50.73;27.87;;;13.60;99.90;;;;;;4994374;28;20224;-60
2021/07/01 01:57:41;;;;;;;54.13;29.10;;;13.50;99.90;;;;;;4994896;28;20219;-61
2021/07/01 02:00:09;;;;;;;50.60;27.23;;;13.60;99.90;;;;;;4994859;28;20282;-61
2021/07/01 02:02:36;;;;;;;50.27;28.23;;;13.60;99.90;;;;;;4994809;28;20277;-62
2021/07/01 02:05:03;;;;;;;52.80;28.60;;;13.50;99.90;;;;;;4994217;28;20211;-61
2021/07/01 02:07:30;;;;;;;52.93;28.00;;;13.50;99.90;;;;;;4994360;28;20267;-61
2021/07/01 02:09:57;;;;;;;52.63;28.50;;;13.60;99.90;;;;;;4993496;28;20631;-61
2021/07/01 02:12:24;;;;;;;57.50;28.77;;;13.60;99.90;;;;;;4994290;28;20713;-61
2021/07/01 02:14:52;;;;;;;53.13;28.63;;;13.50;99.90;;;;;;4994241;28;20261;-60
2021/07/01 02:17:19;;;;;;;58.60;29.33;;;13.50;99.90;;;;;;4993547;28;20219;-61
2021/07/01 02:19:45;;;;;;;57.53;29.27;;;13.40;99.90;;;;;;4993892;28;20212;-61
2021/07/01 02:22:12;;;;;;;56.63;29.00;;;13.40;99.90;;;;;;4992639;28;20227;-60
2021/07/01 02:24:39;;;;;;;54.93;27.00;;;13.40;99.90;;;;;;4993887;28;20211;-61
2021/07/01 02:27:06;;;;;;;54.90;26.60;;;13.40;99.90;;;;;;4993005;28;20238;-62
2021/07/01 02:29:32;;;;;;;50.60;26.60;;;13.40;99.90;;;;;;4994192;28;20212;-62
2021/07/01 02:32:00;;;;;;;53.27;27.03;;;13.50;99.90;;;;;;4993959;28;20210;-62
2021/07/01 02:34:28;;;;;;;55.13;27.33;;;13.40;99.90;;;;;;4993543;28;20210;-62
2021/07/01 02:36:54;;;;;;;51.33;26.43;;;13.50;99.90;;;;;;4993640;28;20242;-62
2021/07/01 02:39:21;;;;;;;50.67;26.20;;;13.50;99.90;;;;;;4993561;28;20207;-62
2021/07/01 02:41:48;;;;;;;52.63;25.97;;;13.50;99.90;;;;;;4992700;28;20643;-62
2021/07/01 02:44:15;;;;;;;52.27;25.40;;;13.50;99.90;;;;;;4993527;28;20353;-62
2021/07/01 02:46:44;;;;;;;52.03;26.00;;;13.40;99.90;;;;;;4992799;28;20227;-62
2021/07/01 02:49:12;;;;;;;50.43;25.43;;;13.40;99.90;;;;;;4992984;28;20250;-62
2021/07/01 02:51:39;;;;;;;45.10;24.77;;;13.40;99.90;;;;;;4993569;28;20203;-62
2021/07/01 02:54:05;;;;;;;43.27;23.70;;;13.40;99.90;;;;;;4992950;28;20676;-62
2021/07/01 02:56:40;;;;;;;39.67;22.93;;;13.40;99.90;;;;;;4992597;28;20301;-62
2021/07/01 02:59:06;;;;;;;41.83;23.53;;;13.50;99.90;;;;;;4993250;28;20664;-62
2021/07/01 03:01:33;;;;;;;49.97;23.97;;;13.50;99.90;;;;;;4993440;28;20235;-62
2021/07/01 03:03:59;;;;;;;46.77;23.30;;;13.50;99.90;;;;;;4993139;28;20325;-62
2021/07/01 03:06:28;;;;;;;43.50;24.23;;;13.50;99.90;;;;;;4992576;28;20243;-62
2021/07/01 03:08:54;;;;;;;47.73;23.60;;;13.50;99.90;;;;;;4993063;28;20229;-62
2021/07/01 03:11:21;;;;;;;43.23;24.37;;;13.40;94.40;;;;;;4993037;28;20208;-62
2021/07/01 03:13:48;;;;;;;41.53;24.27;;;13.40;99.90;;;;;;4992131;28;20669;-62
2021/07/01 03:16:19;;;;;;;45.83;25.60;;;13.40;99.90;;;;;;4992845;28;20708;-62
2021/07/01 03:18:45;;;;;;;48.77;24.30;;;13.40;99.90;;;;;;4993404;28;20215;-62
2021/07/01 03:21:12;;;;;;;48.03;24.57;;;13.40;99.90;;;;;;4991784;28;20208;-62
2021/07/01 03:23:40;;;;;;;47.53;25.33;;;13.40;99.90;;;;;;4993065;28;20260;-62
2021/07/01 03:26:07;;;;;;;46.40;24.43;;;13.30;99.90;;;;;;4992891;28;20225;-62
2021/07/01 03:28:33;;;;;;;48.60;24.43;;;13.40;99.90;;;;;;4992957;28;20631;-62
2021/07/01 03:31:00;;;;;;;44.67;23.87;;;13.40;99.90;;;;;;4992024;28;20598;-62
2021/07/01 03:33:27;;;;;;;43.90;23.53;;;13.40;99.90;;;;;;4992443;28;20218;-62
2021/07/01 03:35:54;;;;;;;47.27;24.17;;;13.40;99.90;;;;;;4992678;28;20231;-62
2021/07/01 03:38:20;;;;;;;45.90;24.47;;;13.30;99.90;;;;;;4992174;28;20277;-62
2021/07/01 03:40:48;;;;;;;46.83;24.33;;;13.30;99.90;;;;;;4992448;28;20207;-62
2021/07/01 03:43:15;;;;;;;42.10;24.90;;;13.30;99.90;;;;;;4992567;28;20231;-61
2021/07/01 03:45:41;;;;;;;49.73;25.33;;;13.40;99.90;;;;;;4992654;28;20228;-61
2021/07/01 03:48:08;;;;;;;46.40;23.80;;;13.40;99.90;;;;;;4991501;28;20751;-62
2021/07/01 03:50:35;;;;;;;42.07;23.93;;;13.30;99.90;;;;;;4992701;28;20668;-61
2021/07/01 03:53:02;;;;;;;45.67;24.47;;;13.30;99.90;;;;;;4992920;28;20210;-62
2021/07/01 03:55:28;;;;;;;43.47;22.90;;;13.30;99.90;;;;;;4992052;28;20248;-62
2021/07/01 03:57:56;;;;;;;45.67;23.20;;;13.30;99.90;;;;;;4991848;28;20200;-62
2021/07/01 04:00:23;;;;;;;42.20;20.70;;;13.30;99.90;;;;;;4992780;28;20212;-62
2021/07/01 04:02:50;;;;;;;43.97;21.87;;;13.30;99.90;;;;;;4996589;28;20226;-63
2021/07/01 04:05:16;;;;;;;30.07;17.43;;;13.30;99.90;;;;;;4996312;28;20227;-62
2021/07/01 04:07:43;;;;;;;29.60;17.73;;;13.30;99.90;;;;;;4996602;28;20745;-62
2021/07/01 04:10:13;;;;;;;33.57;18.73;;;13.30;99.90;;;;;;4996346;28;20215;-62
2021/07/01 04:12:40;;;;;;;37.17;20.03;;;13.20;99.90;;;;;;4996559;28;20593;-62
2021/07/01 04:15:09;;;;;;;38.60;20.83;;;13.10;99.90;;;;;;4995264;28;20210;-62
2021/07/01 04:17:36;;;;;;;40.40;22.03;;;13.10;99.90;;;;;;4996504;28;20211;-62
2021/07/01 04:20:04;;;;;;;42.33;23.20;;;13.20;99.90;;;;;;4996868;28;20203;-62
2021/07/01 04:22:30;;;;;;;38.73;20.90;;;13.10;99.90;;;;;;4996166;28;20297;-63
2021/07/01 04:24:57;;;;;;;42.80;22.23;;;13.20;99.90;;;;;;4987059;28;20274;-63
2021/07/01 04:27:23;;;;;;;39.10;21.80;;;13.20;99.90;;;;;;4992309;28;20210;-61
2021/07/01 04:29:50;;;;;;;35.27;21.40;;;13.20;99.90;;;;;;4996628;28;20259;-60
2021/07/01 04:32:18;;;;;;;39.57;21.73;;;13.20;99.90;;;;;;4993915;28;20202;-62
2021/07/01 04:34:45;;;;;;;36.43;23.00;;;13.30;99.90;;;;;;4976648;28;20265;-62
2021/07/01 04:37:11;;;;;;;38.40;23.57;;;13.30;99.90;;;;;;4976730;28;20651;-62
2021/07/01 04:39:38;;;;;;;43.17;25.40;;;13.30;99.90;;;;;;4976845;28;20267;-61
2021/07/01 04:42:05;;;;;;;45.53;26.23;;;13.30;99.90;;;;;;4976285;28;20220;-61
2021/07/01 04:44:31;;;;;;;45.47;25.60;;;13.30;99.90;;;;;;4980138;28;20211;-62
2021/07/01 04:46:58;;;;;;;48.70;27.00;;;13.30;99.90;;;;;;4995742;28;20278;-62
2021/07/01 04:49:26;;;;;;;48.23;26.90;;;13.30;99.90;;;;;;4994138;28;20208;-61
2021/07/01 04:51:52;;;;;;;41.43;25.90;;;13.30;99.90;;;;;;4995748;28;20250;-62
2021/07/01 04:54:19;;;;;;;43.07;26.60;;;13.30;99.90;;;;;;4981518;28;20624;-61
2021/07/01 04:56:46;;;;;;;39.77;25.37;;;13.30;99.90;;;;;;4976106;28;20232;-62
2021/07/01 04:59:13;;;;;;;44.27;25.73;;;13.30;99.90;;;;;;4976007;28;20673;-61
2021/07/01 05:01:40;;;;;;;44.60;26.27;;;13.30;99.90;;;;;;4976100;28;20264;-61
2021/07/01 05:04:09;;;;;;;41.63;25.90;;;13.30;99.90;;;;;;4975621;28;20212;-61
2021/07/01 05:06:37;;;;;;;42.60;24.90;;;13.30;99.90;;;;;;4975658;28;20259;-61
2021/07/01 05:09:04;;;;;;;47.20;26.27;;;13.30;99.90;;;;;;4975368;28;20273;-61
2021/07/01 05:11:31;;;;;;;45.23;25.33;;;13.30;99.90;;;;;;4975066;28;20215;-61
2021/07/01 05:13:58;;;;;;;39.93;25.80;;;13.30;99.90;;;;;;4975714;28;20689;-60
2021/07/01 05:16:27;;;;;;;46.07;26.63;;;13.30;99.90;;;;;;4975922;28;20644;-61
2021/07/01 05:18:54;;;;;;;44.53;25.90;;;13.30;99.90;;;;;;4975371;28;20215;-63
2021/07/01 05:21:20;;;;;;;47.57;26.50;;;13.20;99.90;;;;;;4975627;28;20261;-62
2021/07/01 05:23:48;;;;;;;42.57;26.13;;;13.10;99.90;;;;;;4975346;28;20865;-62
2021/07/01 05:26:15;;;;;;;45.27;25.53;;;13.00;99.90;;;;;;4986107;28;20302;-61
2021/07/01 05:28:42;;;;;;;40.07;23.97;;;13.10;99.90;;;;;;5005426;28;20281;-65
2021/07/01 05:31:08;;;;;;;45.17;23.93;;;13.00;99.90;;;;;;5011523;28;20210;-65
2021/07/01 05:33:35;;;;;;;39.80;24.03;;;13.00;99.90;;;;;;4987417;28;20213;-64
2021/07/01 05:36:02;;;;;;;44.83;24.97;;;13.00;99.90;;;;;;4971898;28;20238;-63
2021/07/01 05:38:28;;;;;;;41.97;24.50;;;13.00;99.90;;;;;;4973721;28;20204;-66
2021/07/01 05:40:56;;;;;;;46.17;25.33;;;13.00;99.90;;;;;;4975171;28;20267;-65
2021/07/01 05:43:24;;;;;;;49.90;25.97;;;13.00;99.90;;;;;;4975322;28;20290;-64
2021/07/01 05:45:51;;;;;;;48.30;25.73;;;13.00;99.90;;;;;;4975002;28;20239;-64
2021/07/01 05:48:18;;;;;;;48.53;26.50;;;13.10;99.90;;;;;;4975494;28;20204;-65
2021/07/01 05:50:49;;;;;;;49.03;26.43;;;13.10;99.90;;;;;;4975475;28;20210;-64
2021/07/01 05:53:23;;;;;;;43.57;26.53;;;13.10;99.90;;;;;;4977973;28;20219;-64
2021/07/01 05:55:50;;;;;;;48.20;27.20;;;13.10;99.90;;;;;;4977612;28;20229;-70
2021/07/01 05:58:18;;;;;;;42.83;27.80;;;13.00;99.90;;;;;;4977443;28;20688;-69
2021/07/01 06:00:45;;;;;;;49.40;28.47;;;13.10;99.90;;;;;;4981119;28;20215;-69
2021/07/01 06:03:11;;;;;;;49.60;27.30;;;13.10;99.90;;;;;;4989202;28;20224;-69
2021/07/01 06:05:41;;;;;;;48.70;29.30;;;13.20;99.90;;;;;;4987031;28;20232;-66
2021/07/01 06:08:09;;;;;;;43.00;27.33;;;13.30;99.90;;;;;;4977185;28;20299;-65
2021/07/01 06:10:40;;;;;;;44.00;26.23;;;13.30;99.90;;;;;;4974924;28;20215;-65
2021/07/01 06:13:08;;;;;;;43.20;25.77;;;13.40;99.90;;;;;;4974116;28;20211;-66
2021/07/01 06:15:36;;;;;;;48.13;26.07;;;13.40;99.90;;;;;;4974171;28;20231;-67
2021/07/01 06:18:04;;;;;;;43.17;24.93;;;13.50;99.90;;;;;;4974519;28;20210;-65
2021/07/01 06:20:30;;;;;;;45.50;25.73;;;13.50;40.80;;;;;;4974560;28;20247;-64
2021/07/01 06:22:57;;;;;;;40.43;23.70;;;13.60;1.00;;;;;;4973775;28;20278;-65
2021/07/01 06:25:24;;;;;;;36.77;22.83;;;13.60;1.00;;;;;;4973598;28;20278;-66
2021/07/01 06:27:50;;;;;;;43.77;23.53;;;13.60;99.90;;;;;;4974187;28;20269;-63
2021/07/01 06:30:20;;;;;;;41.50;23.70;;;13.60;99.90;;;;;;4973927;28;20269;-69
2021/07/01 06:32:51;;;;;;;42.33;23.17;;;13.70;1.00;;;;;;4974510;28;20213;-65
2021/07/01 06:35:19;;;;;;;43.03;24.00;;;13.60;99.90;;;;;;4973678;28;20230;-67
2021/07/01 06:37:47;;;;;;;35.53;21.93;;;13.60;1.00;;;;;;4974050;28;20604;-68
2021/07/01 06:40:15;;;;;;;36.63;23.23;;;13.60;99.90;;;;;;4974132;28;20212;-65
2021/07/01 06:42:47;;;;;;;42.27;24.40;;;13.40;1.00;;;;;;4975698;28;20235;-65
2021/07/01 06:45:15;;;;;;;41.53;26.27;;;13.40;86.30;;;;;;4973152;28;20732;-64
2021/07/01 06:47:46;;;;;;;44.23;26.43;;;13.40;99.90;;;;;;4973420;28;20218;-65
2021/07/01 06:50:15;;;;;;;40.80;25.53;;;13.40;1.00;;;;;;4973910;28;20217;-64
2021/07/01 06:52:44;;;;;;;45.17;26.50;;;13.40;99.90;;;;;;4973897;28;20204;-64
2021/07/01 06:55:13;;;;;;;36.40;25.03;;;13.40;99.90;;;;;;4973445;28;20239;-64
2021/07/01 06:57:40;;;;;;;40.93;25.60;;;13.40;1.00;;;;;;4973348;28;20258;-64
2021/07/01 07:00:08;;;;;;;40.03;24.23;;;13.40;99.90;;;;;;4980925;28;20213;-65
2021/07/01 07:02:35;;;;;;;34.10;22.50;;;13.40;99.90;;;;;;4993103;28;20276;-67
2021/07/01 07:05:04;;;;;;;40.47;23.73;;;13.40;1.00;;;;;;4992576;28;20766;-63
2021/07/01 07:07:32;;;;;;;43.97;24.00;;;13.40;42.30;;;;;;4992632;28;20306;-65
2021/07/01 07:10:02;;;;;;;32.97;22.57;;;13.50;99.90;;;;;;4992820;28;20211;-66
2021/07/01 07:12:30;;;;;;;29.87;19.80;;;13.60;99.90;;;;;;4992744;28;21143;-63
2021/07/01 07:14:57;;;;;;;35.70;19.73;;;13.50;55.30;;;;;;4992533;28;20274;-64
2021/07/01 07:17:29;;;;;;;30.40;18.57;;;13.50;1.00;;;;;;4992617;28;20215;-65
2021/07/01 07:19:58;;;;;;;30.60;20.37;;;13.60;1.00;;;;;;4992679;28;20241;-62
2021/07/01 07:22:27;;;;;;;34.83;19.80;;;13.50;81.80;;;;;;4992559;28;20577;-63
2021/07/01 07:25:01;;;;;;;34.10;18.97;;;13.50;1.00;;;;;;4992133;28;20237;-64
2021/07/01 07:27:29;;;;;;;31.70;19.90;;;13.40;99.90;;;;;;4992782;28;20215;-63
2021/07/01 07:29:57;;;;;;;28.80;18.30;;;13.40;1.00;;;;;;4992565;28;20660;-64
2021/07/01 07:32:27;;;;;;;28.73;19.10;;;13.40;99.90;;;;;;4992643;28;20214;-64
2021/07/01 07:34:54;;;;;;;29.73;17.87;;;13.40;99.90;;;;;;4992294;28;20211;-65
2021/07/01 07:37:21;;;;;;;22.83;17.10;;;13.40;1.00;;;;;;4992118;28;20234;-65
2021/07/01 07:39:48;;;;;;;25.60;16.87;;;13.40;99.90;;;;;;4993331;28;20233;-65
2021/07/01 07:42:18;;;;;;;26.13;16.70;;;13.40;99.90;;;;;;4992525;28;20268;-64
2021/07/01 07:44:45;;;;;;;27.70;16.47;;;13.40;1.00;;;;;;4991989;28;20254;-65
2021/07/01 07:47:13;;;;;;;25.57;17.47;;;13.50;99.90;;;;;;4991939;28;20231;-67
2021/07/01 07:49:40;;;;;;;23.90;16.13;;;13.60;99.90;;;;;;4992197;28;20239;-66
2021/07/01 07:52:10;;;;;;;23.80;15.60;;;13.70;99.90;;;;;;4992147;28;20676;-66
2021/07/01 07:54:42;;;;;;;24.17;16.53;;;13.80;99.90;;;;;;4992164;28;20265;-66
2021/07/01 07:57:10;;;;;;;30.23;14.80;;;13.80;1.00;;;;;;4991923;28;20711;-66
2021/07/01 07:59:39;;;;;;;24.67;15.13;;;13.70;1.00;;;;;;4992315;28;20210;-66
2021/07/01 08:02:07;;;;;;;22.40;15.27;;;13.70;1.00;;;;;;4992282;28;20210;-67
2021/07/01 08:04:35;;;;;;;27.07;16.17;;;13.70;1.00;;;;;;4991583;28;20230;-63
2021/07/01 08:07:04;;;;;;;26.73;15.53;;;13.80;99.90;;;;;;4991801;28;20389;-64
2021/07/01 08:09:31;;;;;;;22.43;15.70;;;13.80;99.90;;;;;;4992011;28;20248;-64
2021/07/01 08:11:58;;;;;;;22.07;15.20;;;13.90;99.90;;;;;;4990755;28;20726;-64
2021/07/01 08:14:26;;;;;;;26.83;15.70;;;13.90;1.00;;;;;;4992408;28;20223;-64
2021/07/01 08:16:55;;;;;;;24.63;18.33;;;13.80;99.90;;;;;;4992136;28;20235;-63
2021/07/01 08:19:22;;;;;;;32.97;18.20;;;13.60;99.90;;;;;;4992417;28;20387;-62
2021/07/01 08:21:48;;;;;;;37.90;20.27;;;13.70;78.60;;;;;;4991993;28;20211;-63
2021/07/01 08:24:15;;;;;;;32.97;20.33;;;13.60;99.90;;;;;;4991915;28;20226;-63
2021/07/01 08:26:42;;;;;;;35.90;21.30;;;13.60;99.90;;;;;;4991450;28;20383;-63
2021/07/01 08:29:11;;;;;;;36.03;21.50;;;13.60;1.00;;;;;;4992036;28;20210;-63
2021/07/01 08:31:42;;;;;;;38.57;20.93;;;13.60;99.90;;;;;;4991575;28;20215;-66
2021/07/01 08:34:11;;;;;;;39.47;21.23;;;13.70;99.90;;;;;;4991964;28;20291;-63
2021/07/01 08:36:42;;;;;;;40.90;22.40;;;13.60;15.00;;;;;;4991483;28;20609;-63
2021/07/01 08:39:08;;;;;;;38.77;21.47;;;13.60;99.90;;;;;;4991753;28;20211;-65
2021/07/01 08:41:35;;;;;;;41.80;22.17;;;13.60;99.90;;;;;;4991882;28;20772;-63
2021/07/01 08:44:07;;;;;;;42.83;23.17;;;13.60;1.00;;;;;;4991290;28;20229;-63
2021/07/01 08:46:47;;;;;;;41.10;24.63;;;13.60;99.90;;;;;;4992558;28;20235;-64
2021/07/01 08:49:31;;;;;;;41.57;22.83;;;13.60;1.00;;;;;;4995570;28;20214;-63
2021/07/01 08:52:01;;;;;;;41.43;23.67;;;13.60;1.00;;;;;;4995515;28;20207;-63
2021/07/01 08:54:31;;;;;;;42.63;23.73;;;13.50;1.00;;;;;;4995001;28;20204;-62
2021/07/01 08:56:58;;;;;;;45.07;23.73;;;13.60;99.90;;;;;;4995376;28;20224;-63
2021/07/01 08:59:27;;;;;;;34.83;22.53;;;13.60;99.90;;;;;;4995410;28;20564;-62
2021/07/01 09:01:58;;;;;;;36.93;22.50;;;13.50;99.90;;;;;;4995409;28;20211;-63
2021/07/01 09:04:29;;;;;;;35.07;22.97;;;13.60;99.90;;;;;;4995025;28;20227;-63
2021/07/01 09:07:00;;;;;;;35.27;22.23;;;13.60;99.90;;;;;;4994661;28;20628;-63
2021/07/01 09:09:33;;;;;;;39.37;23.03;;;13.60;22.20;;;;;;4995308;28;20211;-63
2021/07/01 09:12:05;;;;;;;39.07;22.63;;;13.60;1.00;;;;;;4995143;28;20750;-64
2021/07/01 09:14:32;;;;;;;40.27;24.80;;;13.60;99.90;;;;;;4995000;28;20204;-64
2021/07/01 09:17:02;;;;;;;41.63;23.77;;;13.50;1.00;;;;;;4994657;28;20233;-64
2021/07/01 09:19:31;;;;;;;41.53;23.27;;;13.50;86.20;;;;;;4994818;28;20211;-63
2021/07/01 09:22:01;;;;;;;37.23;21.07;;;13.50;99.90;;;;;;4996405;28;20210;-63
2021/07/01 09:24:34;;;;;;;46.10;24.10;;;13.50;99.90;;;;;;4997073;28;20329;-64
2021/07/01 09:27:03;;;;;;;37.27;23.07;;;13.40;99.90;;;;;;4996200;28;20719;-63
2021/07/01 09:29:32;;;;;;;36.47;22.10;;;13.40;99.90;;;;;;4994706;28;20207;-64
2021/07/01 09:32:00;;;;;;;38.67;22.90;;;13.40;1.00;;;;;;4994458;28;20261;-62
2021/07/01 09:34:28;;;;;;;39.23;23.43;;;13.40;1.00;;;;;;4994578;28;20213;-62
2021/07/01 09:36:57;;;;;;;35.20;22.47;;;13.40;1.00;;;;;;4994922;28;20716;-62
2021/07/01 09:39:26;;;;;;;36.77;23.83;;;13.40;99.90;;;;;;4995831;28;20266;-64
2021/07/01 09:41:57;;;;;;;36.43;21.83;;;13.40;1.00;;;;;;4996354;28;20679;-63
2021/07/01 09:44:26;;;;;;;33.20;20.67;;;13.50;1.00;;;;;;4995553;28;20234;-63
2021/07/01 09:46:56;;;;;;;34.40;21.90;;;13.50;99.90;;;;;;4994390;28;20733;-64
2021/07/01 09:49:30;;;;;;;35.87;20.90;;;13.50;99.90;;;;;;4994579;28;20214;-63
2021/07/01 09:52:00;;;;;;;38.93;22.43;;;13.60;99.90;;;;;;4994546;28;20234;-61
2021/07/01 09:54:29;;;;;;;41.23;22.10;;;13.60;99.90;;;;;;4998600;28;20230;-66
2021/07/01 09:56:59;;;;;;;37.10;22.27;;;13.70;99.90;;;;;;4999206;28;20270;-65
2021/07/01 09:59:30;;;;;;;32.57;21.47;;;13.80;99.90;;;;;;4993576;28;20218;-64
2021/07/01 10:02:13;;;;;;;34.23;20.83;;;13.70;1.00;;;;;;4997110;28;20238;-64
2021/07/01 10:04:44;;;;;;;44.93;21.80;;;13.90;7.90;;;;;;4998070;28;20228;-65
2021/07/01 10:07:13;;;;;;;29.33;20.83;;;13.90;1.00;;;;;;4997780;28;20235;-62
2021/07/01 10:09:40;;;;;;;37.67;20.17;;;13.90;1.00;;;;;;4994058;28;20246;-62
2021/07/01 10:12:15;;;;;;;35.00;21.70;;;14.00;1.00;;;;;;4994147;28;20219;-63
2021/07/01 10:14:43;;;;;;;36.00;20.70;;;14.00;99.90;;;;;;4993979;28;20230;-64
2021/07/01 10:17:11;;;;;;;35.97;21.30;;;14.10;99.90;;;;;;4994362;28;20242;-64
2021/07/01 10:19:39;;;;;;;29.87;20.47;;;14.10;96.80;;;;;;4993894;28;20211;-63
2021/07/01 10:22:08;;;;;;;29.47;19.50;;;14.20;1.00;;;;;;4993685;28;20211;-64
2021/07/01 10:24:48;;;;;;;30.20;19.40;;;14.20;1.00;;;;;;4993502;28;20240;-65
2021/07/01 10:27:29;;;;;;;34.60;20.27;;;14.20;1.00;;;;;;4993912;28;20237;-63
2021/07/01 10:29:58;;;;;;;30.67;20.43;;;14.20;99.90;;;;;;4993705;28;20221;-65
2021/07/01 10:32:40;;;;;;;35.10;20.00;;;14.10;99.90;;;;;;4993688;28;20210;-62
2021/07/01 10:35:23;;;;;;;31.10;18.07;;;14.10;1.00;;;;;;4993140;28;20738;-62
2021/07/01 10:37:57;;;;;;;30.83;18.47;;;14.10;99.90;;;;;;4993573;28;20215;-63
2021/07/01 10:40:25;;;;;;;31.10;17.90;;;14.10;1.00;;;;;;4993525;28;20225;-65
2021/07/01 10:42:55;;;;;;;28.43;16.13;;;14.20;99.90;;;;;;4993080;28;20215;-66
2021/07/01 10:45:22;;;;;;;23.30;14.77;;;14.20;1.00;;;;;;4992940;28;20230;-68
2021/07/01 10:47:49;;;;;;;23.07;15.47;;;14.10;1.00;;;;;;4993181;28;20203;-65
2021/07/01 10:50:29;;;;;;;23.20;14.27;;;14.00;1.00;;;;;;4993483;28;20262;-69
2021/07/01 10:52:56;;;;;;;22.50;14.50;;;14.00;99.90;;;;;;4993182;28;20296;-68
2021/07/01 10:55:24;;;;;;;24.73;14.17;;;14.10;99.90;;;;;;4992540;28;20223;-67
2021/07/01 10:57:55;;;;;;;25.13;13.47;;;14.10;82.60;;;;;;4976489;28;20623;-64
2021/07/01 11:00:37;;;;;;;24.83;13.33;;;14.10;99.90;;;;;;4973676;28;20211;-64
2021/07/01 11:03:04;;;;;;;28.77;13.93;;;14.10;99.90;;;;;;4988538;28;20815;-65
2021/07/01 11:05:34;;;;;;;18.53;12.70;;;14.10;1.00;;;;;;4981399;28;20678;-65
2021/07/01 11:08:01;;;;;;;18.87;12.30;;;14.10;99.90;;;;;;4973625;28;20230;-66
2021/07/01 11:10:35;;;;;;;17.50;12.30;;;14.00;99.90;;;;;;4973165;28;20286;-67
2021/07/01 11:13:07;;;;;;;23.93;11.47;;;14.00;2.70;;;;;;4973651;28;20212;-68
2021/07/01 11:15:34;;;;;;;21.90;13.87;;;13.90;18.20;;;;;;4974393;28;20290;-68
2021/07/01 11:18:08;;;;;;;20.23;13.47;;;13.80;99.90;;;;;;4992595;28;20241;-70
2021/07/01 11:20:35;;;;;;;21.40;13.13;;;13.90;51.90;;;;;;4992974;28;20215;-66
2021/07/01 11:23:02;;;;;;;26.53;14.57;;;14.10;99.90;;;;;;4992476;28;20253;-66
2021/07/01 11:25:34;;;;;;;22.70;14.57;;;14.10;99.90;;;;;;4991995;28;20344;-64
2021/07/01 11:28:19;;;;;;;23.83;17.07;;;14.00;1.00;;;;;;4992742;28;20238;-66
2021/07/01 11:30:51;;;;;;;27.43;17.13;;;14.00;99.90;;;;;;4992331;28;20612;-64
2021/07/01 11:33:19;;;;;;;30.37;17.70;;;13.90;1.00;;;;;;4992706;28;20563;-65
2021/07/01 11:35:47;;;;;;;31.43;19.03;;;13.90;32.30;;;;;;4992193;28;20277;-64
2021/07/01 11:38:27;;;;;;;27.67;18.77;;;13.90;31.60;;;;;;4992367;28;20239;-65
2021/07/01 11:40:55;;;;;;;24.10;17.23;;;14.00;99.90;;;;;;4992603;28;20607;-65
2021/07/01 11:43:24;;;;;;;28.60;19.40;;;14.10;99.90;;;;;;4992133;28;20307;-65
2021/07/01 11:45:52;;;;;;;28.80;18.77;;;14.20;1.00;;;;;;4992357;28;20314;-65
2021/07/01 11:48:21;;;;;;;31.17;19.50;;;14.30;1.00;;;;;;4992126;28;20554;-65
2021/07/01 11:50:49;;;;;;;29.93;16.77;;;14.40;99.90;;;;;;4992385;28;20217;-65
2021/07/01 11:53:16;;;;;;;31.60;17.00;;;14.20;99.90;;;;;;4991761;28;20219;-65
2021/07/01 11:55:42;;;;;;;28.80;16.67;;;14.20;99.90;;;;;;4991614;28;20227;-68
2021/07/01 11:58:12;;;;;;;22.90;16.07;;;14.20;1.00;;;;;;4992581;28;20211;-69
2021/07/01 12:00:40;;;;;;;25.70;17.17;;;14.20;52.20;;;;;;4992600;28;20729;-65
2021/07/01 12:03:07;;;;;;;25.30;16.07;;;14.30;1.00;;;;;;4992634;28;20258;-65
2021/07/01 12:05:34;;;;;;;26.50;18.93;;;14.30;14.50;;;;;;4991490;28;20285;-65
2021/07/01 12:08:03;;;;;;;27.93;19.77;;;14.40;99.90;;;;;;4992091;28;20623;-64
2021/07/01 12:10:30;;;;;;;20.37;15.73;;;14.50;1.00;;;;;;4991992;28;20629;-64
2021/07/01 12:12:56;;;;;;;29.33;17.57;;;14.40;1.00;;;;;;4992204;28;20203;-64
2021/07/01 12:15:23;;;;;;;24.53;16.87;;;14.30;99.90;;;;;;4992121;28;20219;-67
2021/07/01 12:18:08;;;;;;;29.93;19.33;;;14.40;99.90;;;;;;4992222;28;20303;-68
2021/07/01 12:20:37;;;;;;;23.73;17.03;;;14.40;1.00;;;;;;4992147;28;20215;-65
2021/07/01 12:23:20;;;;;;;25.23;15.77;;;14.40;1.00;;;;;;4995385;28;20277;-65
2021/07/01 12:25:47;;;;;;;21.63;14.70;;;14.40;99.90;;;;;;4995553;28;20288;-63
2021/07/01 12:28:24;;;;;;;21.60;13.83;;;14.40;99.90;;;;;;4995806;28;20257;-64
2021/07/01 12:31:05;;;;;;;21.53;13.87;;;14.30;1.00;;;;;;4996014;28;20206;-65
2021/07/01 12:33:47;;;;;;;20.47;14.33;;;14.20;99.90;;;;;;4995342;28;20218;-66
2021/07/01 12:36:22;;;;;;;20.53;12.63;;;14.30;99.90;;;;;;4995541;28;20225;-65